Fairmount, Indiana
Current Conditions -  °F | °C
As of 7:55 PM on Friday 24 Oct 2014 (Local Time) from KMZZ Reporting Station
Clear Clear  
Wind Chill: 53°   Ceiling: Unl
Heat Index: 53°   Visibility: 10mi
Dew Point: 47°   Wind: 6mph
Humidity: 81%   Direction: 210°SSW
Pressure: 30.02"   Gusts: NA
Location:  40.42°N, 85.65°W
Report Text: KMZZ 242355Z AUTO 21005KT 10SM CLR 12/09 A3002 RMK AO2 T01170085 10324 21015
Loading
Personal Weather Stations






























Interactive Weather Map
Tropical Storm Tracking
New forecast layout! Learn more

10-Day Weather Forecast

Advertisements
Track Severe Weather on mobile